Terminal Aerodrome Forecast
Issued by NWS Omaha/Valley, NE

Home | Current Version | Previous Version | Text Only | Print | Product List | Glossary On
Versions: 1 2 3 4 5 6 7 8 9 10 11 12 13 14 15 16 17 18 19 20 21 22 23 24 25 26 27 28 29
000
FTUS43 KOAX 010520
TAFOMA
TAF
KOMA 010520Z 0106/0206 12007KT P6SM BKN100
      TEMPO 0106/0109 -SHRA BKN050
     FM011000 12005KT P6SM SCT050 SCT250
      TEMPO 0110/0113 5SM BR
     FM011500 09005KT P6SM SCT050 SCT250
     FM011900 07006KT P6SM BKN060=

USA.gov is the U.S. government's official web portal to all federal, state and local government web resources and services.